• Join FlightAware (Why Join?)
  • Login
  • US Flag 
04:13AM EDT


 

Airport Tracker/Info


-or-


 

Live Flight TrackerFlight Track Log ✈ N449ND ✈ 15-Jan-2014 ✈ KFPR - KFPR

Flight Track Log - Related Links

Times and Time Zones

All times are in EST time to prevent confusion due to time zone crossing. See the N449ND flight status page for this flight to view local times or setup timezone preferences in your user account.

Time Position Orientation Groundspeed Altitude Reporting Facility
EST Latitude Longitude Course Direction KTS MPH feet Rate Location/Type
09:07AM 27.4978 -80.3803 347° North 95 109 500  Level Miami Center
09:08AM 27.4950 -80.4014 262° West 87 100 1,200 720 Climbing Miami Center
09:09AM 27.4944 -80.4272 269° West 80 92 2,000 660 Climbing Miami Center
09:10AM 27.4981 -80.4531 279° West 80 92 2,600 540 Climbing Miami Center
09:11AM 27.5058 -80.4742 293° West 88 101 3,100 240 Climbing Miami Center
09:12AM 27.4975 -80.3726 347° North  Level Estimated
09:12AM 27.5292 -80.4586 31° Northeast 89 102 3,100  Level Miami Center
09:13AM 27.5528 -80.4314 46° Northeast 105 121 3,000 -60 Descending Miami Center
09:14AM 27.5556 -80.4008 84° East 100 115 3,000  Level Miami Center
09:15AM 27.5461 -80.3678 108° East 105 121 3,000  Level Miami Center
09:16AM 27.5406 -80.3350 101° East 105 121 3,000  Level Miami Center
09:17AM 27.5456 -80.3044 80° East 110 127 3,100  Climbing Miami Center
09:18AM 27.5589 -80.2675 68° East 105 121 3,100 -240 Level Miami Center
09:19AM 27.5842 -80.2519 29° Northeast 104 120 2,700 -480 Descending Miami Center
09:20AM 27.6047 -80.2711 320° Northwest 83 96 2,200 -480 Descending Miami Center
09:21AM 27.6103 -80.2972 284° West 90 104 1,800 -300 Descending Miami Center
09:22AM 27.6200 -80.3231 293° West 95 109 1,700 -360 Descending Miami Center
09:23AM 27.6300 -80.3494 293° West 89 102 1,100 -600 Descending Miami Center
09:24AM 27.6378 -80.3731 290° West 89 102 500 -300 Descending Miami Center
09:25AM 27.6475 -80.3967 295° West 89 102 500 180 Level Miami Center
09:26AM 27.6553 -80.4181 292° West 89 102 900 600 Climbing Miami Center
09:27AM 27.6547 -80.4461 269° West 84 97 1,700 720 Climbing Miami Center
09:28AM 27.6542 -80.4694 268° West 84 97 2,400 600 Climbing Miami Center
09:29AM 27.6514 -80.4953 263° West 84 97 3,000 300 Climbing Miami Center
09:30AM 27.6508 -80.5211 269° West 89 102 3,000  Level Miami Center
09:31AM 27.6339 -80.5253 192° South 73 84 3,000 300 Level Miami Center
09:32AM 27.6136 -80.5011 133° Southeast 73 84 3,700 480 Climbing Miami Center
09:33AM 27.6103 -80.4706 97° East 92 106 4,000 120 Climbing Miami Center
09:34AM 27.6050 -80.4353 100° East 102 117 4,000  Level Miami Center
09:35AM 27.5994 -80.4069 102° East 107 123 4,000  Level Miami Center
09:36AM 27.5939 -80.3717 100° East 107 123 4,100  Climbing Miami Center
09:37AM 27.5886 -80.3339 99° East 107 123 4,000 -300 Descending Miami Center
09:38AM 27.5811 -80.3008 104° East 107 123 3,500 -480 Descending Miami Center
09:39AM 27.5756 -80.2681 101° East 107 123 3,100 -240 Descending Miami Center
09:40AM 27.5700 -80.2372 101° East 107 123 3,100  Level Miami Center
09:41AM 27.5644 -80.2044 101° East 107 123 3,100  Level Miami Center
09:42AM 27.5569 -80.1667 103° East 107 123 3,100 -60 Level Miami Center
09:43AM 27.5494 -80.1336 104° East 107 123 3,000 -60 Descending Miami Center
09:44AM 27.5283 -80.1403 196° South 72 83 3,000  Level Miami Center
09:45AM 27.5053 -80.1464 193° South 86 99 3,100  Climbing Miami Center
09:46AM 27.4758 -80.1528 191° South 95 109 3,100 -60 Level Miami Center
09:47AM 27.4528 -80.1614 198° South 95 109 3,000 -420 Descending Miami Center
09:48AM 27.4583 -80.1919 282° West 76 87 2,300 -600 Descending Miami Center
09:49AM 27.4661 -80.2181 289° West 92 106 1,800 -360 Descending Miami Center
09:50AM 27.4717 -80.2439 284° West 97 112 1,600 -120 Descending Miami Center
09:51AM 27.4794 -80.2744 286° West 91 105 1,600 -300 Level Miami Center
09:52AM 27.4872 -80.2981 290° West 91 105 1,100 -420 Descending Miami Center
09:53AM 27.4908 -80.3217 280° West 86 99 800 -360 Descending Miami Center
09:54AM 27.4964 -80.3453 285° West 86 99 400 1,080 Descending Miami Center
09:55AM 27.4897 -80.3683 252° West 80 92 3,000 2,580 Climbing Miami Center